Time;durP1;ratioP1;P1;durP2;ratioP2;P2;SDS_P1;SDS_P2;PMS_P1;PMS_P2;Temp;Humidity;BMP_temperature;BMP_pressure;BME280_temperature;BME280_humidity;BME280_pressure;Samples;Min_cycle;Max_cycle;Signal;HPM_P1;HPM_P2
2021/01/24 00:00:05;;;;;;;;;;;19.00;57.60;;;;;;5018779;28;1177;-66
2021/01/24 00:02:31;;;;;;;;;;;19.00;57.60;;;;;;5023789;28;1299;-65
2021/01/24 00:04:56;;;;;;;;;;;18.90;57.60;;;;;;5023220;28;1678;-68
2021/01/24 00:07:22;;;;;;;;;;;18.90;57.60;;;;;;5022995;28;1241;-67
2021/01/24 00:09:47;;;;;;;;;;;18.90;57.70;;;;;;5022351;28;1907;-66
2021/01/24 00:12:13;;;;;;;;;;;18.90;57.60;;;;;;5024114;28;1276;-67
2021/01/24 00:14:38;;;;;;;;;;;18.90;57.70;;;;;;5020037;28;1235;-67
2021/01/24 00:17:04;;;;;;;;;;;18.90;57.70;;;;;;5023510;28;1132;-67
2021/01/24 00:19:29;;;;;;;;;;;18.90;57.70;;;;;;5021424;28;1196;-66
2021/01/24 00:21:55;;;;;;;;;;;18.90;57.70;;;;;;5016109;28;1375;-68
2021/01/24 00:24:20;;;;;;;;;;;18.90;57.70;;;;;;5023141;28;1333;-66
2021/01/24 00:26:46;;;;;;;;;;;18.90;57.70;;;;;;5012728;28;1309;-67
2021/01/24 00:29:11;;;;;;;;;;;18.90;57.70;;;;;;5010668;28;1906;-66
2021/01/24 00:31:37;;;;;;;;;;;18.90;57.70;;;;;;5011382;28;1326;-68
2021/01/24 00:34:02;;;;;;;;;;;18.90;57.80;;;;;;5011416;28;1258;-68
2021/01/24 00:36:28;;;;;;;;;;;18.90;57.80;;;;;;5011793;28;1304;-66
2021/01/24 00:38:53;;;;;;;;;;;18.90;57.80;;;;;;5011852;28;1298;-66
2021/01/24 00:41:19;;;;;;;;;;;18.90;57.80;;;;;;5011537;28;1040;-66
2021/01/24 00:43:44;;;;;;;;;;;18.90;57.80;;;;;;5016573;28;1188;-66
2021/01/24 00:46:10;;;;;;;;;;;18.90;57.80;;;;;;5015368;28;1069;-66
2021/01/24 00:48:36;;;;;;;;;;;18.90;57.80;;;;;;5016072;28;1894;-66
2021/01/24 00:51:02;;;;;;;;;;;18.90;57.80;;;;;;5016130;28;1357;-67
2021/01/24 00:53:27;;;;;;;;;;;18.90;57.80;;;;;;5026472;28;1295;-65
2021/01/24 00:55:54;;;;;;;;;;;18.90;57.90;;;;;;5033821;28;1252;-63
2021/01/24 00:58:19;;;;;;;;;;;18.80;57.80;;;;;;5022344;28;1130;-64
2021/01/24 01:00:45;;;;;;;;;;;18.90;57.90;;;;;;5015215;28;1255;-64
2021/01/24 01:03:11;;;;;;;;;;;18.90;57.90;;;;;;5038024;28;1319;-64
2021/01/24 01:05:39;;;;;;;;;;;18.80;57.80;;;;;;5017499;28;1301;-65
2021/01/24 01:08:05;;;;;;;;;;;18.90;57.90;;;;;;5015140;28;969;-63
2021/01/24 01:10:30;;;;;;;;;;;18.80;57.90;;;;;;5014958;28;1910;-64
2021/01/24 01:12:56;;;;;;;;;;;18.80;57.90;;;;;;5015018;28;1306;-65
2021/01/24 01:15:22;;;;;;;;;;;18.80;57.90;;;;;;5014595;28;1276;-64
2021/01/24 01:17:48;;;;;;;;;;;18.80;57.90;;;;;;5014930;28;1299;-64
2021/01/24 01:20:13;;;;;;;;;;;18.80;57.90;;;;;;5015178;28;1280;-64
2021/01/24 01:22:39;;;;;;;;;;;18.80;57.90;;;;;;5015590;28;1307;-64
2021/01/24 01:25:05;;;;;;;;;;;18.80;57.90;;;;;;5015280;28;1333;-64
2021/01/24 01:27:30;;;;;;;;;;;18.80;57.90;;;;;;5015363;28;1296;-64
2021/01/24 01:29:55;;;;;;;;;;;18.80;57.90;;;;;;5014620;28;1972;-64
2021/01/24 01:32:21;;;;;;;;;;;18.80;58.00;;;;;;5015001;28;1313;-64
2021/01/24 01:34:46;;;;;;;;;;;18.80;58.00;;;;;;5014607;28;1316;-64
2021/01/24 01:37:12;;;;;;;;;;;18.80;58.00;;;;;;5014566;28;1237;-65
2021/01/24 01:39:37;;;;;;;;;;;18.80;58.00;;;;;;5014699;28;1234;-64
2021/01/24 01:42:09;;;;;;;;;;;18.80;58.00;;;;;;5015198;28;1256;-64
2021/01/24 01:44:34;;;;;;;;;;;18.80;58.00;;;;;;5015196;28;1320;-64
2021/01/24 01:47:00;;;;;;;;;;;18.80;58.00;;;;;;5014800;28;1297;-64
2021/01/24 01:49:25;;;;;;;;;;;18.80;58.00;;;;;;5018313;28;1907;-65
2021/01/24 01:51:51;;;;;;;;;;;18.80;58.00;;;;;;5021815;28;1393;-65
2021/01/24 01:54:16;;;;;;;;;;;18.80;58.00;;;;;;5026365;28;1126;-64
2021/01/24 01:56:42;;;;;;;;;;;18.80;58.10;;;;;;5023455;28;1193;-65
2021/01/24 01:59:07;;;;;;;;;;;18.80;58.00;;;;;;5022573;28;1220;-64
2021/01/24 02:01:36;;;;;;;;;;;18.70;58.00;;;;;;5025316;28;1286;-64
2021/01/24 02:04:11;;;;;;;;;;;18.80;58.10;;;;;;5023958;28;1521;-64
2021/01/24 02:06:42;;;;;;;;;;;18.80;58.10;;;;;;5011830;28;1324;-63
2021/01/24 02:09:11;;;;;;;;;;;18.80;58.10;;;;;;5015292;28;1958;-63
2021/01/24 02:11:36;;;;;;;;;;;18.80;58.10;;;;;;5013648;28;1358;-64
2021/01/24 02:14:08;;;;;;;;;;;18.80;58.10;;;;;;5014539;28;1227;-63
2021/01/24 02:16:33;;;;;;;;;;;18.80;58.10;;;;;;5013645;28;1130;-63
2021/01/24 02:18:59;;;;;;;;;;;18.80;58.10;;;;;;5014951;28;1170;-64
2021/01/24 02:21:29;;;;;;;;;;;18.70;58.00;;;;;;5014035;28;1339;-63
2021/01/24 02:23:55;;;;;;;;;;;18.80;58.10;;;;;;5013876;28;1376;-63
2021/01/24 02:26:41;;;;;;;;;;;18.70;58.10;;;;;;5015350;28;1281;-64
2021/01/24 02:29:07;;;;;;;;;;;18.80;58.10;;;;;;5007266;28;1918;-63
2021/01/24 02:31:32;;;;;;;;;;;18.80;58.10;;;;;;5014477;28;1331;-64
2021/01/24 02:33:58;;;;;;;;;;;18.70;58.00;;;;;;5015044;28;1466;-64
2021/01/24 02:36:23;;;;;;;;;;;18.80;58.10;;;;;;5013525;28;1354;-64
2021/01/24 02:38:50;;;;;;;;;;;18.80;58.10;;;;;;5015080;28;1513;-63
2021/01/24 02:41:16;;;;;;;;;;;18.80;58.10;;;;;;5014814;28;1390;-63
2021/01/24 02:43:42;;;;;;;;;;;18.80;58.00;;;;;;5013854;28;1314;-65
2021/01/24 02:46:07;;;;;;;;;;;18.80;58.00;;;;;;5012844;28;1543;-64
2021/01/24 02:48:33;;;;;;;;;;;18.80;58.00;;;;;;5013496;28;1168;-65
2021/01/24 02:50:58;;;;;;;;;;;18.80;57.90;;;;;;5013964;28;1956;-64
2021/01/24 02:53:24;;;;;;;;;;;18.80;57.90;;;;;;5025707;28;1282;-64
2021/01/24 02:55:49;;;;;;;;;;;18.80;57.90;;;;;;5033778;28;1281;-65
2021/01/24 02:58:15;;;;;;;;;;;18.90;57.80;;;;;;5021179;28;1135;-65
2021/01/24 03:00:41;;;;;;;;;;;18.90;57.80;;;;;;5013166;28;1384;-64
2021/01/24 03:03:06;;;;;;;;;;;18.90;57.80;;;;;;5035392;28;1302;-65
2021/01/24 03:05:32;;;;;;;;;;;18.90;57.70;;;;;;5016003;28;1231;-67
2021/01/24 03:07:57;;;;;;;;;;;18.90;57.70;;;;;;5012375;28;1255;-64
2021/01/24 03:10:23;;;;;;;;;;;18.90;57.60;;;;;;5014185;28;1902;-65
2021/01/24 03:12:48;;;;;;;;;;;18.90;57.60;;;;;;5050239;22;3050;-65
2021/01/24 03:15:14;;;;;;;;;;;18.90;57.60;;;;;;5092963;28;1311;-66
2021/01/24 03:17:39;;;;;;;;;;;18.90;57.60;;;;;;5092328;28;1767;-67
2021/01/24 03:20:05;;;;;;;;;;;18.90;57.50;;;;;;5092590;28;1585;-67
2021/01/24 03:22:31;;;;;;;;;;;18.90;57.50;;;;;;5092825;28;1648;-68
2021/01/24 03:24:57;;;;;;;;;;;18.90;57.50;;;;;;5092295;28;1596;-68
2021/01/24 03:27:22;;;;;;;;;;;18.90;57.40;;;;;;5091929;28;1496;-66
2021/01/24 03:29:48;;;;;;;;;;;18.90;57.40;;;;;;5092615;28;1955;-68
2021/01/24 03:32:13;;;;;;;;;;;18.90;57.40;;;;;;5093625;28;1660;-68
2021/01/24 03:34:38;;;;;;;;;;;19.00;57.50;;;;;;5093030;28;1399;-66
2021/01/24 03:37:04;;;;;;;;;;;19.00;57.50;;;;;;5093204;28;1279;-67
2021/01/24 03:39:29;;;;;;;;;;;19.00;57.40;;;;;;5092661;28;1451;-66
2021/01/24 03:41:55;;;;;;;;;;;19.00;57.50;;;;;;5092979;28;1213;-66
2021/01/24 03:44:20;;;;;;;;;;;19.00;58.00;;;;;;5092962;28;1303;-66
2021/01/24 03:46:46;;;;;;;;;;;19.00;57.40;;;;;;5093355;28;1677;-66
2021/01/24 03:49:11;;;;;;;;;;;19.00;57.40;;;;;;5093205;28;1886;-66
2021/01/24 03:51:37;;;;;;;;;;;19.00;57.40;;;;;;5082563;28;1248;-66
2021/01/24 03:54:02;;;;;;;;;;;19.00;57.40;;;;;;5073121;28;1604;-66
2021/01/24 03:56:28;;;;;;;;;;;19.00;57.40;;;;;;5073243;28;1378;-66
2021/01/24 03:58:53;;;;;;;;;;;19.00;57.40;;;;;;5071780;28;1396;-66
2021/01/24 04:01:19;;;;;;;;;;;19.00;57.40;;;;;;5072998;28;1583;-66
2021/01/24 04:03:44;;;;;;;;;;;19.00;57.40;;;;;;5072364;28;1359;-66
2021/01/24 04:06:10;;;;;;;;;;;19.00;57.40;;;;;;5072114;28;1565;-66
2021/01/24 04:08:35;;;;;;;;;;;19.00;57.40;;;;;;5072910;28;1253;-66
2021/01/24 04:11:01;;;;;;;;;;;19.00;57.40;;;;;;5072692;28;1910;-65
2021/01/24 04:13:26;;;;;;;;;;;18.90;57.40;;;;;;5070682;28;1437;-66
2021/01/24 04:15:52;;;;;;;;;;;18.90;57.40;;;;;;5072124;28;1165;-65
2021/01/24 04:18:17;;;;;;;;;;;19.00;57.50;;;;;;5072540;28;1308;-66
2021/01/24 04:20:43;;;;;;;;;;;19.00;57.40;;;;;;5072130;28;1301;-65
2021/01/24 04:23:08;;;;;;;;;;;18.90;57.40;;;;;;5072102;28;1359;-65
2021/01/24 04:25:34;;;;;;;;;;;19.00;57.50;;;;;;5081634;28;1280;-65
2021/01/24 04:27:59;;;;;;;;;;;18.90;57.40;;;;;;5092491;28;1336;-66
2021/01/24 04:30:25;;;;;;;;;;;18.90;57.40;;;;;;5091800;28;1906;-65
2021/01/24 04:32:50;;;;;;;;;;;18.90;57.40;;;;;;5091304;28;1441;-66
2021/01/24 04:35:16;;;;;;;;;;;18.90;57.40;;;;;;5092178;28;1280;-66
2021/01/24 04:37:41;;;;;;;;;;;18.90;57.40;;;;;;5092252;28;1110;-66
2021/01/24 04:40:07;;;;;;;;;;;18.90;57.40;;;;;;5083684;28;1098;-66
2021/01/24 04:42:33;;;;;;;;;;;18.90;57.40;;;;;;5086264;28;1305;-66
2021/01/24 04:44:58;;;;;;;;;;;18.90;57.40;;;;;;5071149;28;1186;-66
2021/01/24 04:47:24;;;;;;;;;;;18.90;57.40;;;;;;5087585;28;1321;-66
2021/01/24 04:49:49;;;;;;;;;;;19.00;57.50;;;;;;5091902;28;1946;-65
2021/01/24 04:52:15;;;;;;;;;;;18.90;57.40;;;;;;5075378;28;1288;-65
2021/01/24 04:54:40;;;;;;;;;;;18.90;57.40;;;;;;5080809;28;1344;-66
2021/01/24 04:57:06;;;;;;;;;;;18.90;57.40;;;;;;5090038;28;1345;-67
2021/01/24 04:59:31;;;;;;;;;;;18.90;57.50;;;;;;5072039;28;1354;-66
2021/01/24 05:01:57;;;;;;;;;;;18.90;58.00;;;;;;5072174;28;1329;-67
2021/01/24 05:04:22;;;;;;;;;;;18.90;57.40;;;;;;5070261;28;1235;-66
2021/01/24 05:06:48;;;;;;;;;;;19.00;57.50;;;;;;5072148;28;1285;-66
2021/01/24 05:09:17;;;;;;;;;;;19.00;57.40;;;;;;5070426;28;1957;-66
2021/01/24 05:11:49;;;;;;;;;;;19.00;57.40;;;;;;5072264;28;1277;-67
2021/01/24 05:14:18;;;;;;;;;;;19.00;57.40;;;;;;5071582;28;1308;-67
2021/01/24 05:16:44;;;;;;;;;;;19.00;57.30;;;;;;5071668;28;1287;-65
2021/01/24 05:19:09;;;;;;;;;;;19.00;57.30;;;;;;5071910;28;1344;-66
2021/01/24 05:21:36;;;;;;;;;;;19.00;57.30;;;;;;5071681;28;1415;-65
2021/01/24 05:24:01;;;;;;;;;;;19.00;57.30;;;;;;5071703;28;1360;-65
2021/01/24 05:26:27;;;;;;;;;;;19.00;57.30;;;;;;5072089;28;1402;-66
2021/01/24 05:28:52;;;;;;;;;;;19.00;57.50;;;;;;5072820;28;1906;-66
2021/01/24 05:31:20;;;;;;;;;;;19.10;57.30;;;;;;5073204;28;1289;-65
2021/01/24 05:33:46;;;;;;;;;;;19.00;57.20;;;;;;5075180;28;1339;-65
2021/01/24 05:36:12;;;;;;;;;;;19.00;57.20;;;;;;5073770;28;1352;-65
2021/01/24 05:38:37;;;;;;;;;;;19.00;57.20;;;;;;5075333;28;1313;-65
2021/01/24 05:41:06;;;;;;;;;;;19.00;57.20;;;;;;5075727;28;1293;-65
2021/01/24 05:43:37;;;;;;;;;;;19.00;57.20;;;;;;5073577;28;1285;-65
2021/01/24 05:46:02;;;;;;;;;;;19.00;57.20;;;;;;5074021;28;1150;-66
2021/01/24 05:48:28;;;;;;;;;;;19.00;57.20;;;;;;5073867;28;1297;-65
2021/01/24 05:50:54;;;;;;;;;;;19.00;57.20;;;;;;5075444;28;1952;-64
2021/01/24 05:53:19;;;;;;;;;;;19.00;57.20;;;;;;5073901;28;1288;-65
2021/01/24 05:55:45;;;;;;;;;;;19.00;57.30;;;;;;5073869;28;1389;-64
2021/01/24 05:58:14;;;;;;;;;;;19.00;57.30;;;;;;5075083;28;1126;-65
2021/01/24 06:00:41;;;;;;;;;;;19.00;57.30;;;;;;5075000;28;1265;-65
2021/01/24 06:03:07;;;;;;;;;;;19.00;57.20;;;;;;5074851;28;1325;-66
2021/01/24 06:05:33;;;;;;;;;;;19.00;57.30;;;;;;5073502;28;1449;-65
2021/01/24 06:07:58;;;;;;;;;;;19.00;57.20;;;;;;5073215;28;1114;-67
2021/01/24 06:10:24;;;;;;;;;;;19.00;57.30;;;;;;5075118;28;1969;-65
2021/01/24 06:12:49;;;;;;;;;;;19.00;57.30;;;;;;5074826;28;1332;-66
2021/01/24 06:15:14;;;;;;;;;;;19.00;57.30;;;;;;5072686;28;1337;-66
2021/01/24 06:17:40;;;;;;;;;;;19.00;57.30;;;;;;5053310;28;1306;-66
2021/01/24 06:20:06;;;;;;;;;;;19.00;57.30;;;;;;5070717;28;1381;-65
2021/01/24 06:22:38;;;;;;;;;;;19.00;57.30;;;;;;5075087;28;1405;-65
2021/01/24 06:25:05;;;;;;;;;;;19.00;57.30;;;;;;5073117;28;1309;-65
2021/01/24 06:27:36;;;;;;;;;;;19.00;57.30;;;;;;5072596;28;1313;-65
2021/01/24 06:30:02;;;;;;;;;;;19.00;57.30;;;;;;5073544;28;1955;-65
2021/01/24 06:32:29;;;;;;;;;;;19.00;57.30;;;;;;5074724;28;1334;-65
2021/01/24 06:34:55;;;;;;;;;;;19.00;57.30;;;;;;5074101;28;1273;-66
2021/01/24 06:37:21;;;;;;;;;;;19.00;57.30;;;;;;5072760;28;1091;-65
2021/01/24 06:39:53;;;;;;;;;;;19.00;57.30;;;;;;5074115;28;1338;-65
2021/01/24 06:42:54;;;;;;;;;;;19.00;57.30;;;;;;5074356;28;1346;-65
2021/01/24 06:45:22;;;;;;;;;;;19.00;57.40;;;;;;5031519;28;1433;-65
2021/01/24 06:47:48;;;;;;;;;;;19.00;57.30;;;;;;5065482;28;1500;-64
2021/01/24 06:50:32;;;;;;;;;;;19.00;57.30;;;;;;5073116;28;1957;-64
2021/01/24 06:53:04;;;;;;;;;;;19.00;57.30;;;;;;5061972;28;1369;-64
2021/01/24 06:55:29;;;;;;;;;;;19.00;57.40;;;;;;5074196;28;1317;-64
2021/01/24 06:57:55;;;;;;;;;;;19.00;57.30;;;;;;5072553;28;1193;-64
2021/01/24 07:00:21;;;;;;;;;;;19.00;57.40;;;;;;5074245;28;1217;-65
2021/01/24 07:02:46;;;;;;;;;;;19.00;57.30;;;;;;5072176;28;1467;-65
2021/01/24 07:05:13;;;;;;;;;;;19.00;57.40;;;;;;5072382;28;1360;-64
2021/01/24 07:07:57;;;;;;;;;;;19.00;57.40;;;;;;5072491;28;1413;-65
2021/01/24 07:10:37;;;;;;;;;;;19.00;57.90;;;;;;5073855;28;1914;-65
2021/01/24 07:13:21;;;;;;;;;;;19.00;57.40;;;;;;5073475;28;1361;-65
2021/01/24 07:15:51;;;;;;;;;;;19.00;57.30;;;;;;5073863;28;1324;-66
2021/01/24 07:18:16;;;;;;;;;;;19.00;57.30;;;;;;5071978;28;1222;-66
2021/01/24 07:20:42;;;;;;;;;;;19.00;57.30;;;;;;5072714;28;1305;-66
2021/01/24 07:23:07;;;;;;;;;;;19.00;57.30;;;;;;5071915;28;1367;-66
2021/01/24 07:25:33;;;;;;;;;;;19.00;57.30;;;;;;5072090;28;1317;-66
2021/01/24 07:27:59;;;;;;;;;;;19.00;57.20;;;;;;5072820;28;1292;-67
2021/01/24 07:30:25;;;;;;;;;;;19.00;57.20;;;;;;5072490;28;1910;-67
2021/01/24 07:32:50;;;;;;;;;;;19.00;57.20;;;;;;5071978;28;1373;-66
2021/01/24 07:35:16;;;;;;;;;;;19.10;57.20;;;;;;5072415;28;1508;-64
2021/01/24 07:37:42;;;;;;;;;;;19.00;57.20;;;;;;5073452;28;1332;-65
2021/01/24 07:40:07;;;;;;;;;;;19.10;57.20;;;;;;5073318;28;1308;-65
2021/01/24 07:42:33;;;;;;;;;;;19.10;57.20;;;;;;5072733;28;1265;-65
2021/01/24 07:44:58;;;;;;;;;;;19.00;57.20;;;;;;5072511;28;1288;-64
2021/01/24 07:47:24;;;;;;;;;;;19.10;57.20;;;;;;5071449;28;1324;-64
2021/01/24 07:49:49;;;;;;;;;;;19.10;57.20;;;;;;5072754;28;1963;-64
2021/01/24 07:52:17;;;;;;;;;;;19.10;57.20;;;;;;5072994;28;1832;-65
2021/01/24 07:54:42;;;;;;;;;;;19.10;57.20;;;;;;5070745;28;1146;-65
2021/01/24 07:57:08;;;;;;;;;;;19.10;57.20;;;;;;5071852;28;1285;-65
2021/01/24 07:59:34;;;;;;;;;;;19.00;57.20;;;;;;5071251;28;1259;-64
2021/01/24 08:01:59;;;;;;;;;;;19.00;57.20;;;;;;5072984;28;1297;-64
2021/01/24 08:04:25;;;;;;;;;;;19.10;57.30;;;;;;5071300;28;1374;-65
2021/01/24 08:06:51;;;;;;;;;;;19.00;57.20;;;;;;5072502;28;1342;-64
2021/01/24 08:09:17;;;;;;;;;;;19.00;57.20;;;;;;5071161;28;1898;-65
2021/01/24 08:11:42;;;;;;;;;;;19.00;57.20;;;;;;5072569;28;1343;-64
2021/01/24 08:14:08;;;;;;;;;;;19.00;57.20;;;;;;5072384;28;1247;-64
2021/01/24 08:16:44;;;;;;;;;;;19.00;57.20;;;;;;5071007;28;1281;-65
2021/01/24 08:19:10;;;;;;;;;;;19.00;57.20;;;;;;5071431;28;1329;-64
2021/01/24 08:21:36;;;;;;;;;;;19.00;57.20;;;;;;5072407;28;1363;-64
2021/01/24 08:24:01;;;;;;;;;;;19.00;57.30;;;;;;5072622;28;1285;-64
2021/01/24 08:26:27;;;;;;;;;;;19.00;57.30;;;;;;5071855;28;1325;-64
2021/01/24 08:28:52;;;;;;;;;;;19.00;57.30;;;;;;5071128;28;1902;-64
2021/01/24 08:31:18;;;;;;;;;;;19.00;57.40;;;;;;5072260;28;2077;-64
2021/01/24 08:33:44;;;;;;;;;;;19.00;57.20;;;;;;5070905;28;1341;-65
2021/01/24 08:36:13;;;;;;;;;;;19.00;57.30;;;;;;5071022;28;1087;-65
2021/01/24 08:38:39;;;;;;;;;;;19.00;57.30;;;;;;5072016;28;1297;-65
2021/01/24 08:41:05;;;;;;;;;;;19.00;57.30;;;;;;5071215;28;1281;-64
2021/01/24 08:43:30;;;;;;;;;;;19.00;57.30;;;;;;5071902;28;1323;-65
2021/01/24 08:46:14;;;;;;;;;;;19.00;57.30;;;;;;5071797;28;1301;-65
2021/01/24 08:48:40;;;;;;;;;;;19.00;57.30;;;;;;5072483;28;1305;-65
2021/01/24 08:51:05;;;;;;;;;;;19.00;57.30;;;;;;5070565;28;1943;-66
2021/01/24 08:53:31;;;;;;;;;;;19.00;57.30;;;;;;5072362;28;1345;-66
2021/01/24 08:55:56;;;;;;;;;;;19.00;57.30;;;;;;5071242;28;1637;-66
2021/01/24 08:58:22;;;;;;;;;;;19.00;57.30;;;;;;5072090;28;1130;-64
2021/01/24 09:01:00;;;;;;;;;;;19.00;57.30;;;;;;5070958;28;1047;-65
2021/01/24 09:03:25;;;;;;;;;;;19.00;57.30;;;;;;5070752;28;1366;-65
2021/01/24 09:05:51;;;;;;;;;;;19.00;57.30;;;;;;5073868;28;1349;-65
2021/01/24 09:08:29;;;;;;;;;;;19.00;57.30;;;;;;5076126;28;1343;-66
2021/01/24 09:10:57;;;;;;;;;;;19.10;57.30;;;;;;5075846;28;1968;-64
2021/01/24 09:13:22;;;;;;;;;;;19.00;57.80;;;;;;5093654;22;2442;-66
2021/01/24 09:15:48;;;;;;;;;;;19.00;57.20;;;;;;5077949;28;1255;-65
2021/01/24 09:18:13;;;;;;;;;;;19.10;57.20;;;;;;5092004;28;1716;-64
2021/01/24 09:20:39;;;;;;;;;;;19.10;57.20;;;;;;5096784;28;1063;-65
2021/01/24 09:23:04;;;;;;;;;;;19.10;57.20;;;;;;5096798;28;1716;-64
2021/01/24 09:25:30;;;;;;;;;;;19.10;57.20;;;;;;5096590;28;1663;-65
2021/01/24 09:27:55;;;;;;;;;;;19.10;57.20;;;;;;5096586;28;1388;-65
2021/01/24 09:30:21;;;;;;;;;;;19.10;57.20;;;;;;5096593;28;1906;-67
2021/01/24 09:32:47;;;;;;;;;;;19.10;57.10;;;;;;5078576;28;1690;-66
2021/01/24 09:35:13;;;;;;;;;;;19.10;57.20;;;;;;5096444;28;1674;-65
2021/01/24 09:37:39;;;;;;;;;;;19.10;57.20;;;;;;5096534;28;1750;-65
2021/01/24 09:40:05;;;;;;;;;;;19.10;57.10;;;;;;5096604;28;1361;-66
2021/01/24 09:42:31;;;;;;;;;;;19.10;57.10;;;;;;5095045;28;1695;-67
2021/01/24 09:44:56;;;;;;;;;;;19.10;57.20;;;;;;5096350;28;1355;-65
2021/01/24 09:47:22;;;;;;;;;;;19.10;57.20;;;;;;5096306;28;1420;-66
2021/01/24 09:49:47;;;;;;;;;;;19.10;57.20;;;;;;5096217;28;1991;-66
2021/01/24 09:52:12;;;;;;;;;;;19.00;57.10;;;;;;5082346;28;1205;-65
2021/01/24 09:54:38;;;;;;;;;;;19.10;57.20;;;;;;5095949;28;1410;-65
2021/01/24 09:57:03;;;;;;;;;;;19.00;57.20;;;;;;5095939;28;1743;-65
2021/01/24 09:59:29;;;;;;;;;;;19.10;57.20;;;;;;5095942;28;1259;-65
2021/01/24 10:01:54;;;;;;;;;;;19.10;57.20;;;;;;5095072;28;1264;-65
2021/01/24 10:04:20;;;;;;;;;;;19.00;57.20;;;;;;5094817;28;1388;-65
2021/01/24 10:06:45;;;;;;;;;;;19.00;57.20;;;;;;5091459;28;1367;-65
2021/01/24 10:09:11;;;;;;;;;;;19.00;57.00;;;;;;5085802;28;1898;-65
2021/01/24 10:11:36;;;;;;;;;;;19.10;57.00;;;;;;5085243;28;1320;-65
2021/01/24 10:14:02;;;;;;;;;;;19.10;56.90;;;;;;5066321;28;1476;-65
2021/01/24 10:16:29;;;;;;;;;;;19.20;57.00;;;;;;5082480;28;1227;-66
2021/01/24 10:18:55;;;;;;;;;;;19.30;56.80;;;;;;5085401;28;1199;-67
2021/01/24 10:21:21;;;;;;;;;;;19.40;56.60;;;;;;5085005;28;1215;-66
2021/01/24 10:23:46;;;;;;;;;;;19.50;56.50;;;;;;5084394;28;1358;-66
2021/01/24 10:26:14;;;;;;;;;;;19.60;56.30;;;;;;5068098;28;1219;-65
2021/01/24 10:28:39;;;;;;;;;;;19.70;56.00;;;;;;5087218;28;1227;-66
2021/01/24 10:31:05;;;;;;;;;;;19.70;55.80;;;;;;5083976;28;1905;-66
2021/01/24 10:33:30;;;;;;;;;;;19.80;55.60;;;;;;5064006;28;1290;-66
2021/01/24 10:35:56;;;;;;;;;;;19.90;55.50;;;;;;5081551;28;1215;-66
2021/01/24 10:38:21;;;;;;;;;;;19.90;55.30;;;;;;5086899;28;1293;-66
2021/01/24 10:40:47;;;;;;;;;;;19.90;55.20;;;;;;5086512;28;1210;-65
2021/01/24 10:43:13;;;;;;;;;;;20.00;55.10;;;;;;5082285;28;1365;-66
2021/01/24 10:45:38;;;;;;;;;;;20.00;55.10;;;;;;5065996;28;1268;-66
2021/01/24 10:48:05;;;;;;;;;;;20.00;55.00;;;;;;5079947;28;1231;-65
2021/01/24 10:50:31;;;;;;;;;;;20.10;54.90;;;;;;5066702;28;1910;-66
2021/01/24 10:52:56;;;;;;;;;;;20.10;55.40;;;;;;5081093;28;1865;-66
2021/01/24 10:55:22;;;;;;;;;;;20.10;54.70;;;;;;5084806;28;1215;-68
2021/01/24 10:57:47;;;;;;;;;;;20.20;54.70;;;;;;5082456;28;1279;-67
2021/01/24 11:00:13;;;;;;;;;;;20.20;54.60;;;;;;5081461;28;1255;-67
2021/01/24 11:02:39;;;;;;;;;;;20.30;54.60;;;;;;5083172;28;1260;-69
2021/01/24 11:05:04;;;;;;;;;;;20.30;54.60;;;;;;5065170;28;1220;-67
2021/01/24 11:07:30;;;;;;;;;;;20.30;54.40;;;;;;5081538;28;1235;-68
2021/01/24 11:09:55;;;;;;;;;;;20.40;54.40;;;;;;5066620;28;1902;-67
2021/01/24 11:12:22;;;;;;;;;;;20.40;54.40;;;;;;5085221;28;1200;-68
2021/01/24 11:14:48;;;;;;;;;;;20.40;54.30;;;;;;5064651;28;1387;-66
2021/01/24 11:17:14;;;;;;;;;;;20.50;54.30;;;;;;5082262;28;1215;-65
2021/01/24 11:19:39;;;;;;;;;;;20.50;54.20;;;;;;5081636;28;1223;-67
2021/01/24 11:22:05;;;;;;;;;;;20.50;54.10;;;;;;5081110;28;1200;-66
2021/01/24 11:24:30;;;;;;;;;;;20.50;54.10;;;;;;5080748;28;1314;-66
2021/01/24 11:26:56;;;;;;;;;;;20.50;54.00;;;;;;5079925;28;1124;-66
2021/01/24 11:29:22;;;;;;;;;;;20.60;54.10;;;;;;5080796;28;1969;-66
2021/01/24 11:31:47;;;;;;;;;;;20.60;54.00;;;;;;5081455;28;1047;-66
2021/01/24 11:34:13;;;;;;;;;;;20.60;54.00;;;;;;5083657;28;1327;-66
2021/01/24 11:36:38;;;;;;;;;;;20.60;54.00;;;;;;5080443;28;1178;-66
2021/01/24 11:39:04;;;;;;;;;;;20.70;54.00;;;;;;5084632;28;1235;-66
2021/01/24 11:41:29;;;;;;;;;;;20.70;53.90;;;;;;5092430;28;1491;-66
2021/01/24 11:43:55;;;;;;;;;;;20.70;53.90;;;;;;5093070;28;1384;-67
2021/01/24 11:46:20;;;;;;;;;;;20.70;53.90;;;;;;5093472;28;1365;-67
2021/01/24 11:48:46;;;;;;;;;;;20.70;53.80;;;;;;5092683;28;1460;-66
2021/01/24 11:51:11;;;;;;;;;;;20.70;53.80;;;;;;5092014;28;1894;-67
2021/01/24 11:53:37;;;;;;;;;;;20.70;53.80;;;;;;5093404;28;1464;-67
2021/01/24 11:56:06;;;;;;;;;;;20.80;53.80;;;;;;5092443;28;1682;-67
2021/01/24 11:58:31;;;;;;;;;;;20.80;53.80;;;;;;5092667;28;1563;-67
2021/01/24 12:00:57;;;;;;;;;;;20.80;53.70;;;;;;5092840;28;1664;-67
2021/01/24 12:03:22;;;;;;;;;;;20.80;53.70;;;;;;5092765;28;1438;-66
2021/01/24 12:05:48;;;;;;;;;;;20.80;53.70;;;;;;5080189;28;1273;-65
2021/01/24 12:08:13;;;;;;;;;;;20.80;53.70;;;;;;5093719;28;1413;-66
2021/01/24 12:10:39;;;;;;;;;;;20.80;53.60;;;;;;5092562;28;1898;-66
2021/01/24 12:13:04;;;;;;;;;;;20.80;53.60;;;;;;5093285;28;1384;-66
2021/01/24 12:15:30;;;;;;;;;;;20.80;53.60;;;;;;5093234;28;1440;-67
2021/01/24 12:17:55;;;;;;;;;;;20.80;53.60;;;;;;5093506;28;1637;-66
2021/01/24 12:20:21;;;;;;;;;;;20.90;53.70;;;;;;5092116;28;1399;-66
2021/01/24 12:22:46;;;;;;;;;;;20.80;53.70;;;;;;5093336;28;1188;-66
2021/01/24 12:25:12;;;;;;;;;;;20.80;53.70;;;;;;5071667;28;1193;-66
2021/01/24 12:27:37;;;;;;;;;;;20.80;53.70;;;;;;5085815;28;1255;-66
2021/01/24 12:30:03;;;;;;;;;;;20.80;53.80;;;;;;5093120;28;1966;-68
2021/01/24 12:32:28;;;;;;;;;;;20.80;53.80;;;;;;5092088;28;1347;-68
2021/01/24 12:34:54;;;;;;;;;;;20.80;53.90;;;;;;5093292;28;1166;-66
2021/01/24 12:37:19;;;;;;;;;;;20.80;53.90;;;;;;5091905;28;1802;-66
2021/01/24 12:39:45;;;;;;;;;;;20.70;53.90;;;;;;5092725;28;1686;-66
2021/01/24 12:42:10;;;;;;;;;;;20.70;54.00;;;;;;5079395;28;1319;-66
2021/01/24 12:44:36;;;;;;;;;;;20.70;54.00;;;;;;5082341;28;1219;-67
2021/01/24 12:47:01;;;;;;;;;;;20.70;54.10;;;;;;5084148;28;1125;-66
2021/01/24 12:49:27;;;;;;;;;;;20.60;54.10;;;;;;5085314;28;1902;-66
2021/01/24 12:51:52;;;;;;;;;;;20.60;54.20;;;;;;5081260;28;1377;-66
2021/01/24 12:54:18;;;;;;;;;;;20.60;54.90;;;;;;5081540;28;1369;-68
2021/01/24 12:56:43;;;;;;;;;;;20.60;54.40;;;;;;5080806;28;1262;-66
2021/01/24 12:59:08;;;;;;;;;;;20.60;54.40;;;;;;5084024;28;1355;-66
2021/01/24 13:01:34;;;;;;;;;;;20.50;54.40;;;;;;5081398;28;1211;-66
2021/01/24 13:03:59;;;;;;;;;;;20.50;54.40;;;;;;5081995;28;1721;-66
2021/01/24 13:06:25;;;;;;;;;;;20.50;54.40;;;;;;5083063;28;1218;-66
2021/01/24 13:08:50;;;;;;;;;;;20.50;54.50;;;;;;5086979;28;1894;-66
2021/01/24 13:11:16;;;;;;;;;;;20.50;54.50;;;;;;5091331;28;1955;-66
2021/01/24 13:13:44;;;;;;;;;;;20.50;54.60;;;;;;5090126;28;1631;-66
2021/01/24 13:16:09;;;;;;;;;;;20.50;54.60;;;;;;5091719;28;1652;-66
2021/01/24 13:18:35;;;;;;;;;;;20.40;54.60;;;;;;5091733;28;1233;-66
2021/01/24 13:21:00;;;;;;;;;;;20.40;54.70;;;;;;5091865;28;1648;-66
2021/01/24 13:23:26;;;;;;;;;;;20.40;54.70;;;;;;5091516;28;1374;-65
2021/01/24 13:25:51;;;;;;;;;;;20.40;54.70;;;;;;5091554;28;1532;-66
2021/01/24 13:28:16;;;;;;;;;;;20.40;54.80;;;;;;5091603;28;1649;-65
2021/01/24 13:30:42;;;;;;;;;;;20.40;54.80;;;;;;5091550;28;1926;-66
2021/01/24 13:33:07;;;;;;;;;;;20.40;54.80;;;;;;5091529;28;1448;-66
2021/01/24 13:35:33;;;;;;;;;;;20.30;54.80;;;;;;5091484;28;1698;-66
2021/01/24 13:37:58;;;;;;;;;;;20.30;54.90;;;;;;5090218;28;1668;-65
2021/01/24 13:40:24;;;;;;;;;;;20.30;54.90;;;;;;5091595;28;1624;-66
2021/01/24 13:42:49;;;;;;;;;;;20.30;54.90;;;;;;5091447;28;1335;-66
2021/01/24 13:45:15;;;;;;;;;;;20.30;55.50;;;;;;5091353;28;1578;-66
2021/01/24 13:47:40;;;;;;;;;;;20.30;55.00;;;;;;5091474;28;1760;-66
2021/01/24 13:50:06;;;;;;;;;;;20.20;55.00;;;;;;5091607;28;1906;-66
2021/01/24 13:52:32;;;;;;;;;;;20.30;55.00;;;;;;5092655;28;1492;-66
2021/01/24 13:54:57;;;;;;;;;;;20.20;55.60;;;;;;5095121;28;1605;-66
2021/01/24 13:57:22;;;;;;;;;;;20.20;55.10;;;;;;5094825;28;1383;-66
2021/01/24 13:59:48;;;;;;;;;;;20.20;55.10;;;;;;5095103;28;1670;-66
2021/01/24 14:02:13;;;;;;;;;;;20.20;55.10;;;;;;5094868;28;1630;-66
2021/01/24 14:04:40;;;;;;;;;;;20.20;55.20;;;;;;5094781;28;1652;-66
2021/01/24 14:07:05;;;;;;;;;;;20.10;55.20;;;;;;5094710;28;1564;-66
2021/01/24 14:09:30;;;;;;;;;;;20.10;55.20;;;;;;5094793;28;1913;-65
2021/01/24 14:11:56;;;;;;;;;;;20.20;55.30;;;;;;5091380;28;2236;-66
2021/01/24 14:14:21;;;;;;;;;;;20.10;55.30;;;;;;5085159;28;1365;-66
2021/01/24 14:16:47;;;;;;;;;;;20.10;55.30;;;;;;5092807;28;1999;-66
2021/01/24 14:19:12;;;;;;;;;;;20.10;55.30;;;;;;5086188;28;1719;-67
2021/01/24 14:21:38;;;;;;;;;;;20.10;55.40;;;;;;5091370;28;1368;-66
2021/01/24 14:24:04;;;;;;;;;;;20.10;55.40;;;;;;5094306;28;1368;-67